Time;durP1;ratioP1;P1;durP2;ratioP2;P2;SDS_P1;SDS_P2;PMS_P1;PMS_P2;Temp;Humidity;BMP_temperature;BMP_pressure;BME280_temperature;BME280_humidity;BME280_pressure;Samples;Min_cycle;Max_cycle;Signal;HPM_P1;HPM_P2
2021/11/12 00:04:53;;;;;;;213.63;200.33;;;10.00;99.90;;;;;;4283482;33;20188;-62
2021/11/12 00:13:06;;;;;;;223.23;209.87;;;9.90;99.90;;;;;;4230184;34;20193;-63
2021/11/12 00:15:35;;;;;;;226.90;212.87;;;9.90;99.90;;;;;;4229965;34;20259;-62
2021/11/12 00:18:04;;;;;;;212.77;199.60;;;9.90;99.90;;;;;;4230517;34;20517;-62
2021/11/12 00:20:31;;;;;;;208.37;194.90;;;9.90;99.90;;;;;;4229332;34;20168;-63
2021/11/12 00:22:59;;;;;;;221.03;206.77;;;9.90;99.90;;;;;;4231084;34;20169;-62
2021/11/12 00:25:26;;;;;;;232.03;217.30;;;10.00;99.90;;;;;;4229148;34;20179;-62
2021/11/12 00:27:53;;;;;;;224.17;209.83;;;9.90;99.90;;;;;;4229774;34;20278;-62
2021/11/12 00:30:29;;;;;;;219.07;205.83;;;9.90;99.90;;;;;;4229480;34;20270;-62
2021/11/12 00:33:04;;;;;;;240.17;225.30;;;9.90;99.90;;;;;;4260883;33;20198;-62
2021/11/12 00:35:36;;;;;;;237.30;223.07;;;9.90;99.90;;;;;;4319839;33;20211;-62
2021/11/12 00:38:08;;;;;;;217.80;203.53;;;10.00;99.90;;;;;;4325683;33;20174;-62
2021/11/12 00:40:43;;;;;;;233.00;219.07;;;9.90;99.90;;;;;;4324745;33;20180;-64
2021/11/12 00:43:14;;;;;;;226.90;213.50;;;9.90;99.90;;;;;;4320192;33;20149;-62
2021/11/12 00:45:51;;;;;;;223.57;209.90;;;9.90;99.90;;;;;;4335852;32;20243;-64
2021/11/12 00:48:21;;;;;;;219.63;206.03;;;9.90;99.90;;;;;;4389354;32;20175;-62
2021/11/12 00:51:07;;;;;;;223.83;209.90;;;9.90;99.90;;;;;;4390947;32;20167;-61
2021/11/12 00:53:55;;;;;;;234.97;220.93;;;9.90;99.90;;;;;;4390937;32;20154;-63
2021/11/12 00:56:24;;;;;;;214.77;200.93;;;9.90;99.90;;;;;;4390178;32;20148;-62
2021/11/12 00:58:52;;;;;;;214.83;201.87;;;10.00;99.90;;;;;;4391721;32;20476;-63
2021/11/12 01:01:19;;;;;;;211.93;198.77;;;9.90;99.90;;;;;;4392433;32;20222;-62
2021/11/12 01:03:47;;;;;;;229.70;216.33;;;9.90;99.90;;;;;;4391459;32;20166;-64
2021/11/12 01:06:14;;;;;;;219.20;205.13;;;9.90;99.90;;;;;;4390732;32;20192;-64
2021/11/12 01:08:43;;;;;;;213.23;200.53;;;9.90;99.90;;;;;;4390713;32;20163;-63
2021/11/12 01:11:11;;;;;;;199.97;187.60;;;9.90;99.90;;;;;;4391631;32;20145;-62
2021/11/12 01:13:39;;;;;;;224.13;210.43;;;9.90;99.90;;;;;;4390550;32;20472;-64
2021/11/12 01:16:06;;;;;;;214.77;201.87;;;9.90;99.90;;;;;;4390629;32;20523;-64
2021/11/12 01:18:36;;;;;;;200.27;187.33;;;9.90;99.90;;;;;;4381152;32;20262;-63
2021/11/12 01:21:04;;;;;;;228.13;215.07;;;9.90;99.90;;;;;;4389999;32;20237;-61
2021/11/12 01:23:31;;;;;;;217.17;203.93;;;9.90;99.90;;;;;;4390466;32;20578;-62
2021/11/12 01:26:00;;;;;;;210.37;197.77;;;9.90;99.90;;;;;;4392087;32;20217;-62
2021/11/12 01:28:27;;;;;;;221.90;208.53;;;9.90;99.90;;;;;;4390761;32;20164;-61
2021/11/12 01:30:54;;;;;;;228.83;215.03;;;9.90;99.90;;;;;;4388019;32;20149;-62
2021/11/12 01:33:24;;;;;;;218.80;205.73;;;9.90;99.90;;;;;;4383100;32;20284;-65
2021/11/12 01:35:52;;;;;;;211.83;198.80;;;9.80;99.90;;;;;;4386821;32;20170;-62
2021/11/12 01:38:18;;;;;;;213.53;200.93;;;9.90;99.90;;;;;;4389121;32;20152;-62
2021/11/12 01:40:47;;;;;;;233.23;219.27;;;9.80;99.90;;;;;;4392109;32;20289;-62
2021/11/12 01:43:18;;;;;;;227.80;214.57;;;9.90;99.90;;;;;;4390631;32;20218;-62
2021/11/12 01:46:06;;;;;;;208.13;195.33;;;9.90;99.90;;;;;;4391359;32;20220;-62
2021/11/12 01:48:52;;;;;;;206.77;194.27;;;9.90;99.90;;;;;;4390994;32;20587;-62
2021/11/12 01:51:26;;;;;;;214.17;201.80;;;9.90;99.90;;;;;;4390990;32;20156;-60
2021/11/12 01:54:07;;;;;;;203.77;191.57;;;9.90;99.90;;;;;;4392275;32;20185;-60
2021/11/12 01:56:39;;;;;;;196.10;184.00;;;9.90;99.90;;;;;;4377746;32;20222;-60
2021/11/12 01:59:14;;;;;;;215.20;202.47;;;9.90;99.90;;;;;;4377461;32;20186;-61
2021/11/12 02:01:45;;;;;;;197.10;185.50;;;9.90;99.90;;;;;;4375703;32;20163;-60
2021/11/12 02:04:14;;;;;;;209.80;197.40;;;9.90;99.90;;;;;;4378855;32;20148;-62
2021/11/12 02:06:42;;;;;;;212.93;200.70;;;9.90;99.90;;;;;;4384769;32;20235;-60
2021/11/12 02:09:13;;;;;;;205.03;193.03;;;9.90;99.90;;;;;;4388865;32;20144;-60
2021/11/12 02:11:41;;;;;;;213.90;201.00;;;9.90;99.90;;;;;;4390262;32;20564;-60
2021/11/12 02:14:10;;;;;;;210.67;197.73;;;9.80;99.90;;;;;;4390814;32;20243;-60
2021/11/12 02:16:41;;;;;;;210.00;197.73;;;9.80;99.90;;;;;;4390183;32;20147;-60
2021/11/12 02:19:09;;;;;;;199.50;187.27;;;9.80;99.90;;;;;;4389922;32;20147;-61
2021/11/12 02:21:42;;;;;;;214.47;202.03;;;9.80;99.90;;;;;;4375708;32;20186;-60
2021/11/12 02:24:11;;;;;;;213.53;201.07;;;9.70;99.90;;;;;;4375740;32;20556;-61
2021/11/12 02:26:41;;;;;;;206.03;193.80;;;9.70;99.90;;;;;;4375513;32;20128;-60
2021/11/12 02:29:09;;;;;;;207.10;194.17;;;9.70;99.90;;;;;;4389682;32;20167;-61
2021/11/12 02:31:37;;;;;;;228.10;215.00;;;9.60;99.90;;;;;;4391243;32;20228;-63
2021/11/12 02:34:07;;;;;;;228.60;215.87;;;9.60;99.90;;;;;;4389860;32;20139;-61
2021/11/12 02:36:34;;;;;;;239.47;225.43;;;9.60;99.90;;;;;;4389748;32;20211;-60
2021/11/12 02:39:06;;;;;;;232.77;219.77;;;9.60;99.90;;;;;;4389622;32;20175;-61
2021/11/12 02:41:35;;;;;;;234.77;220.97;;;9.60;99.90;;;;;;4389272;32;20148;-60
2021/11/12 02:44:03;;;;;;;237.60;224.03;;;9.60;99.90;;;;;;4389100;32;20141;-63
2021/11/12 02:46:30;;;;;;;222.83;209.50;;;9.60;99.90;;;;;;4388894;32;20152;-62
2021/11/12 02:48:57;;;;;;;236.40;223.30;;;9.60;99.90;;;;;;4389476;32;20159;-61
2021/11/12 02:51:28;;;;;;;236.30;223.00;;;9.60;99.90;;;;;;4389658;32;20556;-60
2021/11/12 02:53:57;;;;;;;225.27;212.50;;;9.60;99.90;;;;;;4389455;32;20145;-61
2021/11/12 02:56:28;;;;;;;237.90;224.70;;;9.50;99.90;;;;;;4389229;32;20566;-63
2021/11/12 02:59:00;;;;;;;233.77;220.60;;;9.60;99.90;;;;;;4389099;32;20160;-61
2021/11/12 03:01:29;;;;;;;221.37;208.33;;;9.60;99.90;;;;;;4389461;32;20160;-60
2021/11/12 03:03:56;;;;;;;233.43;220.07;;;9.50;99.90;;;;;;4389152;32;20159;-62
2021/11/12 03:06:23;;;;;;;233.90;220.13;;;9.50;99.90;;;;;;4389439;32;20183;-62
2021/11/12 03:08:51;;;;;;;234.73;221.33;;;9.50;99.90;;;;;;4390176;32;20201;-61
2021/11/12 03:11:19;;;;;;;226.03;212.87;;;9.50;99.90;;;;;;4390054;32;20167;-61
2021/11/12 03:13:48;;;;;;;225.40;212.00;;;9.40;99.90;;;;;;4389762;32;20183;-62
2021/11/12 03:16:15;;;;;;;236.73;222.93;;;9.40;99.90;;;;;;4389403;32;20844;-63
2021/11/12 03:18:43;;;;;;;233.47;218.77;;;9.40;99.90;;;;;;4388937;32;20187;-61
2021/11/12 03:21:14;;;;;;;239.50;225.17;;;9.30;99.90;;;;;;4392085;32;20551;-62
2021/11/12 03:23:46;;;;;;;240.57;226.97;;;9.30;99.90;;;;;;4378551;32;20136;-60
2021/11/12 03:26:25;;;;;;;222.00;208.67;;;9.30;99.90;;;;;;4377993;32;20148;-61
2021/11/12 04:02:08;;;;;;;201.17;188.43;;;8.90;99.90;;;;;;4231025;33;20257;-62
2021/11/12 04:04:46;;;;;;;228.43;214.27;;;8.80;99.90;;;;;;4230270;33;20585;-62
2021/11/12 04:07:24;;;;;;;205.03;192.10;;;8.70;99.90;;;;;;4242551;33;20519;-61
2021/11/12 04:18:21;;;;;;;221.93;207.70;;;8.40;99.90;;;;;;4331083;33;20178;-62
2021/11/12 04:21:02;;;;;;;208.43;194.47;;;8.20;99.90;;;;;;4344648;33;20191;-62
2021/11/12 04:40:27;;;;;;;225.93;211.13;;;7.40;99.90;;;;;;4392076;32;20503;-61
2021/11/12 05:10:40;;;;;;;303.77;285.10;;;6.80;99.90;;;;;;4378416;32;20198;-62
2021/11/12 05:43:39;;;;;;;285.57;268.73;;;6.20;99.90;;;;;;4343464;33;20240;-62
2021/11/12 05:46:20;;;;;;;292.63;275.10;;;6.20;99.90;;;;;;4344144;33;20189;-62
2021/11/12 05:51:39;;;;;;;283.67;266.97;;;6.00;99.90;;;;;;4392722;32;20499;-62
2021/11/12 05:56:55;;;;;;;261.50;246.20;;;5.90;99.90;;;;;;4391881;32;20163;-62
2021/11/12 05:59:23;;;;;;;277.63;260.47;;;5.90;99.90;;;;;;4391484;32;20500;-62
2021/11/12 06:01:50;;;;;;;284.40;267.90;;;5.80;99.90;;;;;;4386365;32;20148;-62
2021/11/12 06:04:17;;;;;;;287.60;270.43;;;5.70;99.90;;;;;;4377452;32;20515;-62
2021/11/12 06:06:44;;;;;;;300.17;282.33;;;5.70;99.90;;;;;;4378922;32;20156;-62
2021/11/12 06:09:11;;;;;;;292.50;274.47;;;5.70;99.90;;;;;;4377045;32;20198;-62
2021/11/12 06:11:38;;;;;;;294.83;276.50;;;5.70;99.90;;;;;;4386166;32;20302;-62
2021/11/12 06:14:06;;;;;;;298.97;280.70;;;5.60;99.90;;;;;;4391114;32;20153;-62
2021/11/12 06:16:34;;;;;;;296.17;277.90;;;5.60;99.90;;;;;;4388018;32;20171;-62
2021/11/12 06:19:01;;;;;;;295.20;277.93;;;5.60;99.90;;;;;;4390251;32;20178;-61
2021/11/12 06:21:29;;;;;;;283.83;266.23;;;5.40;99.90;;;;;;4386008;32;20152;-65
2021/11/12 06:23:56;;;;;;;276.30;259.57;;;5.40;99.90;;;;;;4388544;32;20144;-61
2021/11/12 06:26:24;;;;;;;297.27;279.77;;;5.40;99.90;;;;;;4390492;32;20246;-61
2021/11/12 06:28:51;;;;;;;282.40;265.47;;;5.40;99.90;;;;;;4390540;32;20151;-62
2021/11/12 06:31:21;;;;;;;305.40;286.83;;;5.40;99.90;;;;;;4390112;32;21095;-62
2021/11/12 06:33:49;;;;;;;295.57;278.07;;;5.30;99.90;;;;;;4387273;32;20222;-62
2021/11/12 06:36:16;;;;;;;285.03;267.90;;;5.30;99.90;;;;;;4387255;32;20160;-63
2021/11/12 06:38:43;;;;;;;297.03;279.10;;;5.30;99.90;;;;;;4386907;32;20178;-61
2021/11/12 06:41:12;;;;;;;299.93;281.63;;;5.30;99.90;;;;;;4387671;32;20203;-61
2021/11/12 06:49:30;;;;;;;290.83;273.43;;;5.20;99.90;;;;;;4389049;32;20162;-64
2021/11/12 06:51:57;;;;;;;281.37;264.37;;;5.10;99.90;;;;;;4383038;32;20581;-60
2021/11/12 06:54:24;;;;;;;289.83;272.37;;;5.10;99.90;;;;;;4388817;32;20145;-61
2021/11/12 06:56:51;;;;;;;281.00;263.20;;;5.10;99.90;;;;;;4392654;32;20185;-60
2021/11/12 06:59:18;;;;;;;275.67;259.33;;;5.00;99.90;;;;;;4389472;32;20239;-61
2021/11/12 07:01:47;;;;;;;272.63;256.23;;;5.00;99.90;;;;;;4391614;32;20266;-62
2021/11/12 07:04:14;;;;;;;274.37;257.20;;;5.00;99.90;;;;;;4391600;32;20216;-60
2021/11/12 07:06:41;;;;;;;280.73;263.20;;;5.00;99.90;;;;;;4385169;32;20202;-62
2021/11/12 07:09:08;;;;;;;279.53;262.20;;;5.00;99.90;;;;;;4391960;32;20170;-61
2021/11/12 07:11:36;;;;;;;285.00;267.83;;;5.00;99.90;;;;;;4391847;32;20268;-61
2021/11/12 07:14:04;;;;;;;289.80;272.17;;;5.10;99.90;;;;;;4387983;32;20160;-62
2021/11/12 07:16:31;;;;;;;263.93;246.43;;;5.10;99.90;;;;;;4381248;32;20203;-63
2021/11/12 07:19:00;;;;;;;286.77;268.27;;;5.10;99.90;;;;;;4391374;32;20186;-62
2021/11/12 07:21:28;;;;;;;274.77;256.53;;;5.30;99.90;;;;;;4385697;32;20140;-62
2021/11/12 07:23:56;;;;;;;292.00;273.93;;;5.50;99.90;;;;;;4384365;32;20226;-61
2021/11/12 07:26:24;;;;;;;285.17;264.93;;;5.40;99.90;;;;;;4387456;32;20217;-61
2021/11/12 07:28:51;;;;;;;274.10;256.30;;;5.40;99.90;;;;;;4389418;32;20624;-61
2021/11/12 07:31:19;;;;;;;282.67;263.27;;;5.50;99.90;;;;;;4385038;32;20163;-61
2021/11/12 07:33:48;;;;;;;269.77;250.93;;;5.50;99.90;;;;;;4393333;32;20167;-63
2021/11/12 07:36:19;;;;;;;288.97;269.40;;;5.60;99.90;;;;;;4392604;32;20457;-64
2021/11/12 07:38:49;;;;;;;299.53;279.97;;;5.70;99.90;;;;;;4392309;32;20293;-62
2021/11/12 07:41:27;;;;;;;290.80;271.80;;;5.70;99.90;;;;;;4392602;32;20220;-62
2021/11/12 07:44:18;;;;;;;286.07;266.60;;;5.60;99.90;;;;;;4393564;32;20175;-61
2021/11/12 07:46:47;;;;;;;270.53;250.70;;;5.70;99.90;;;;;;4392219;32;20155;-61
2021/11/12 07:49:15;;;;;;;274.37;254.93;;;5.70;99.90;;;;;;4391953;32;20194;-61
2021/11/12 07:51:43;;;;;;;294.13;273.83;;;5.80;99.90;;;;;;4393636;32;20484;-61
2021/11/12 07:54:10;;;;;;;291.47;271.40;;;5.80;99.90;;;;;;4392001;32;20231;-61
2021/11/12 07:56:37;;;;;;;306.20;285.47;;;5.80;99.90;;;;;;4393036;32;20186;-61
2021/11/12 07:59:05;;;;;;;293.63;273.63;;;5.80;99.90;;;;;;4390101;32;20156;-64
2021/11/12 08:01:32;;;;;;;291.87;272.23;;;5.80;99.90;;;;;;4383144;32;20159;-61
2021/11/12 08:04:01;;;;;;;287.40;267.20;;;5.90;99.90;;;;;;4377900;32;20164;-62
2021/11/12 08:06:29;;;;;;;303.53;282.53;;;5.80;99.90;;;;;;4375996;32;20513;-61
2021/11/12 08:09:01;;;;;;;309.80;288.87;;;5.90;99.90;;;;;;4377603;32;20201;-63
2021/11/12 08:11:33;;;;;;;286.00;266.47;;;5.90;99.90;;;;;;4376950;32;20493;-61
2021/11/12 08:14:06;;;;;;;289.70;270.20;;;6.00;99.90;;;;;;4378406;32;20137;-60
2021/11/12 08:16:47;;;;;;;296.60;275.37;;;5.90;99.90;;;;;;4384429;32;20160;-61
2021/11/12 08:19:16;;;;;;;283.30;262.90;;;6.00;99.90;;;;;;4376771;32;20178;-61
2021/11/12 08:21:50;;;;;;;287.13;267.83;;;6.10;99.90;;;;;;4376249;32;20572;-61
2021/11/12 08:24:30;;;;;;;306.93;285.63;;;6.10;99.90;;;;;;4377231;32;20237;-61
2021/11/12 08:27:03;;;;;;;299.97;278.90;;;6.10;99.90;;;;;;4376174;32;20174;-61
2021/11/12 08:32:31;;;;;;;301.60;281.70;;;6.30;99.90;;;;;;4375600;32;20523;-61
2021/11/12 08:35:13;;;;;;;304.13;284.07;;;6.40;99.90;;;;;;4376392;32;20144;-61
2021/11/12 08:37:49;;;;;;;298.20;277.67;;;6.40;99.90;;;;;;4376745;32;20136;-61
2021/11/12 08:40:25;;;;;;;294.60;274.57;;;6.30;99.90;;;;;;4377364;32;20258;-61
2021/11/12 08:42:56;;;;;;;297.90;277.67;;;6.40;99.90;;;;;;4384015;32;20156;-61
2021/11/12 08:45:25;;;;;;;304.93;284.77;;;6.40;99.90;;;;;;4376156;32;20171;-61
2021/11/12 08:47:55;;;;;;;295.73;275.47;;;6.40;99.90;;;;;;4376027;32;20202;-61
2021/11/12 08:50:23;;;;;;;309.60;289.00;;;6.50;99.90;;;;;;4377449;32;20140;-61
2021/11/12 08:52:54;;;;;;;299.33;278.70;;;6.50;99.90;;;;;;4376268;32;20190;-61
2021/11/12 08:55:26;;;;;;;307.97;287.77;;;6.60;99.90;;;;;;4376074;32;20231;-61
2021/11/12 08:57:54;;;;;;;304.97;285.00;;;6.70;99.90;;;;;;4376372;32;20523;-60
2021/11/12 09:00:21;;;;;;;298.63;278.30;;;6.70;99.90;;;;;;4375895;32;20170;-60
2021/11/12 09:02:50;;;;;;;324.10;302.20;;;6.80;99.90;;;;;;4376959;32;20140;-60
2021/11/12 09:05:18;;;;;;;310.30;289.63;;;6.60;99.90;;;;;;4375891;32;20632;-60
2021/11/12 09:07:46;;;;;;;304.00;283.87;;;6.60;99.90;;;;;;4375963;32;20549;-60
2021/11/12 09:10:13;;;;;;;314.93;294.27;;;6.70;99.90;;;;;;4376211;32;20154;-60
2021/11/12 09:12:43;;;;;;;318.90;298.40;;;6.80;99.90;;;;;;4375795;32;20160;-60
2021/11/12 09:15:14;;;;;;;305.67;286.47;;;6.90;99.90;;;;;;4377539;32;20153;-60
2021/11/12 09:17:46;;;;;;;308.07;288.43;;;6.90;99.90;;;;;;4375048;32;20175;-60
2021/11/12 09:20:13;;;;;;;309.10;289.27;;;7.00;99.90;;;;;;4377256;32;20581;-60
2021/11/12 09:22:40;;;;;;;309.67;289.90;;;7.00;99.90;;;;;;4375403;32;20153;-60
2021/11/12 09:25:08;;;;;;;290.93;273.10;;;7.10;99.90;;;;;;4375479;32;20172;-60
2021/11/12 09:27:35;;;;;;;296.33;278.23;;;7.00;99.90;;;;;;4375500;32;20153;-61
2021/11/12 09:30:05;;;;;;;288.53;271.47;;;7.10;99.90;;;;;;4375531;32;20220;-61
2021/11/12 09:32:31;;;;;;;271.60;255.83;;;7.20;99.90;;;;;;4375405;32;20179;-60
2021/11/12 09:34:58;;;;;;;252.77;237.37;;;7.20;99.90;;;;;;4375217;32;20168;-60
2021/11/12 09:37:25;;;;;;;273.93;257.47;;;7.20;99.90;;;;;;4375491;32;20179;-60
2021/11/12 09:39:55;;;;;;;279.60;263.63;;;7.20;99.90;;;;;;4375309;32;20170;-60
2021/11/12 09:42:27;;;;;;;295.27;278.33;;;7.20;99.90;;;;;;4375665;32;20157;-61
2021/11/12 09:44:54;;;;;;;254.67;239.07;;;7.40;99.90;;;;;;4376043;32;20141;-60
2021/11/12 09:47:27;;;;;;;249.83;234.67;;;7.40;99.90;;;;;;4376082;32;20164;-60
2021/11/12 09:49:56;;;;;;;232.93;218.33;;;7.50;99.90;;;;;;4375921;32;20210;-60
2021/11/12 09:52:23;;;;;;;240.37;224.90;;;7.50;99.90;;;;;;4377616;32;20509;-60
2021/11/12 09:54:52;;;;;;;240.30;225.53;;;7.40;99.90;;;;;;4375994;32;20226;-61
2021/11/12 09:57:20;;;;;;;226.73;211.90;;;7.50;99.90;;;;;;4375960;32;20587;-60
2021/11/12 09:59:48;;;;;;;240.90;225.67;;;7.30;99.90;;;;;;4375946;32;20596;-60
2021/11/12 10:02:15;;;;;;;253.57;238.10;;;7.40;99.90;;;;;;4375628;32;20163;-60
2021/11/12 10:04:44;;;;;;;232.93;217.97;;;7.50;99.90;;;;;;4375806;32;20194;-61
2021/11/12 10:07:13;;;;;;;225.37;211.43;;;7.60;99.90;;;;;;4375833;32;20561;-60
2021/11/12 10:09:41;;;;;;;238.00;222.80;;;7.40;99.90;;;;;;4375785;32;20163;-60
2021/11/12 10:12:10;;;;;;;251.40;236.47;;;7.30;99.90;;;;;;4376764;32;20500;-60
2021/11/12 10:14:41;;;;;;;240.83;226.30;;;7.50;99.90;;;;;;4375581;32;20259;-60
2021/11/12 10:17:09;;;;;;;218.90;204.93;;;7.60;99.90;;;;;;4377153;32;20179;-60
2021/11/12 10:19:46;;;;;;;219.23;204.67;;;7.50;99.90;;;;;;4375556;32;20140;-60
2021/11/12 10:22:14;;;;;;;232.63;217.83;;;7.70;99.90;;;;;;4375420;32;20234;-60
2021/11/12 10:24:43;;;;;;;206.73;193.30;;;7.70;99.90;;;;;;4376920;32;20469;-60
2021/11/12 10:27:12;;;;;;;225.03;211.07;;;7.60;99.90;;;;;;4375515;32;20140;-60
2021/11/12 10:29:44;;;;;;;203.23;189.77;;;7.60;99.90;;;;;;4375776;32;20159;-60
2021/11/12 10:32:12;;;;;;;197.23;183.83;;;7.70;99.90;;;;;;4375374;32;20159;-60
2021/11/12 10:34:40;;;;;;;204.60;190.90;;;7.70;99.90;;;;;;4374733;32;20232;-60
2021/11/12 10:37:10;;;;;;;200.93;187.67;;;7.70;99.90;;;;;;4374550;32;20203;-60
2021/11/12 10:39:39;;;;;;;163.47;151.73;;;7.70;99.90;;;;;;4374877;32;20160;-61
2021/11/12 10:42:08;;;;;;;163.07;151.33;;;7.70;99.90;;;;;;4376020;32;20155;-61
2021/11/12 10:44:42;;;;;;;162.10;150.80;;;7.70;99.90;;;;;;4374548;32;20235;-60
2021/11/12 10:47:09;;;;;;;170.33;158.73;;;7.50;99.90;;;;;;4375871;32;20191;-60
2021/11/12 10:49:38;;;;;;;180.77;168.60;;;7.60;99.90;;;;;;4379420;32;20225;-60
2021/11/12 10:52:10;;;;;;;167.33;155.67;;;7.70;99.90;;;;;;4381249;32;20609;-60
2021/11/12 10:54:48;;;;;;;162.13;150.90;;;7.90;99.90;;;;;;4377582;32;20558;-60
2021/11/12 10:57:15;;;;;;;160.07;148.60;;;8.00;99.90;;;;;;4374765;32;20164;-60
2021/11/12 11:00:11;;;;;;;142.03;131.97;;;8.20;99.90;;;;;;4374493;32;20190;-61
2021/11/12 11:02:41;;;;;;;140.13;129.67;;;8.20;99.90;;;;;;4374325;32;20153;-61
2021/11/12 11:05:10;;;;;;;143.40;132.87;;;8.20;99.90;;;;;;4375297;32;20512;-61
2021/11/12 11:07:39;;;;;;;143.90;133.50;;;8.40;99.90;;;;;;4374317;32;20556;-61
2021/11/12 11:10:18;;;;;;;141.40;130.80;;;8.50;99.90;;;;;;4374363;32;20262;-60
2021/11/12 11:12:45;;;;;;;134.13;124.10;;;8.50;99.90;;;;;;4374420;32;20613;-60
2021/11/12 11:15:25;;;;;;;145.53;135.17;;;8.80;99.90;;;;;;4374891;32;20577;-61
2021/11/12 11:18:07;;;;;;;147.47;137.30;;;8.70;99.90;;;;;;4373960;32;20213;-62
2021/11/12 11:20:35;;;;;;;131.50;122.30;;;8.80;99.90;;;;;;4374405;32;20156;-60
2021/11/12 11:23:03;;;;;;;139.10;128.27;;;8.80;99.90;;;;;;4374379;32;20156;-61
2021/11/12 11:25:31;;;;;;;133.57;123.90;;;8.80;99.90;;;;;;4374398;32;20145;-61
2021/11/12 11:28:02;;;;;;;138.80;128.33;;;8.70;99.90;;;;;;4374610;32;20168;-60
2021/11/12 11:30:29;;;;;;;149.00;138.67;;;8.70;99.90;;;;;;4374392;32;20210;-61
2021/11/12 11:32:56;;;;;;;141.90;131.27;;;8.60;99.90;;;;;;4374580;32;20168;-62
2021/11/12 11:35:24;;;;;;;142.03;131.63;;;8.60;99.90;;;;;;4375085;32;20177;-60
2021/11/12 11:37:53;;;;;;;149.33;139.00;;;8.80;99.90;;;;;;4374613;32;20157;-60
2021/11/12 11:40:24;;;;;;;145.80;135.07;;;8.80;99.90;;;;;;4374203;32;20166;-61
2021/11/12 11:42:52;;;;;;;145.33;135.03;;;8.80;99.90;;;;;;4376979;32;20220;-61
2021/11/12 11:45:19;;;;;;;141.50;132.10;;;8.80;99.90;;;;;;4379696;32;20165;-61
2021/11/12 11:47:47;;;;;;;142.67;132.63;;;8.90;99.90;;;;;;4381674;32;20183;-61
2021/11/12 11:50:29;;;;;;;140.50;130.40;;;8.90;99.90;;;;;;4377791;32;20160;-60
2021/11/12 11:53:27;;;;;;;132.47;123.17;;;8.90;99.90;;;;;;4377004;32;20180;-60
2021/11/12 11:56:15;;;;;;;131.67;122.07;;;9.00;99.90;;;;;;4376860;32;20161;-60
2021/11/12 11:58:44;;;;;;;137.53;128.70;;;9.20;99.90;;;;;;4377359;32;20168;-62
2021/11/12 12:01:37;;;;;;;140.10;130.53;;;9.40;99.90;;;;;;4376851;32;20178;-62
2021/11/12 12:04:38;;;;;;;129.30;120.10;;;9.50;99.90;;;;;;4377720;32;20225;-61
2021/11/12 12:07:26;;;;;;;126.33;117.80;;;9.60;99.90;;;;;;4376752;32;20177;-62
2021/11/12 12:09:58;;;;;;;128.90;120.73;;;9.70;99.90;;;;;;4376628;32;20584;-60
2021/11/12 12:12:46;;;;;;;132.07;123.10;;;9.80;99.90;;;;;;4377175;32;20193;-61
2021/11/12 12:15:39;;;;;;;125.70;117.33;;;9.70;99.90;;;;;;4377404;32;20189;-62
2021/11/12 12:18:30;;;;;;;126.93;118.80;;;9.80;99.90;;;;;;4382768;32;20564;-61
2021/11/12 12:21:33;;;;;;;122.30;114.63;;;10.00;99.90;;;;;;4376401;32;20509;-62
2021/11/12 12:33:15;;;;;;;112.23;105.07;;;10.00;99.90;;;;;;4377914;32;20200;-60
2021/11/12 12:36:02;;;;;;;113.87;106.60;;;10.00;99.90;;;;;;4377220;32;20213;-61
2021/11/12 13:23:12;;;;;;;112.07;104.77;;;9.70;99.90;;;;;;4343490;33;20183;-62
2021/11/12 13:25:41;;;;;;;112.23;104.60;;;9.60;99.90;;;;;;4341321;33;20208;-61
2021/11/12 13:28:10;;;;;;;123.10;115.43;;;9.60;99.90;;;;;;4342729;33;20203;-61
2021/11/12 13:30:38;;;;;;;116.07;108.27;;;9.60;99.90;;;;;;4342918;33;20577;-61
2021/11/12 13:33:06;;;;;;;119.37;112.10;;;9.60;99.90;;;;;;4342537;33;20231;-61
2021/11/12 13:35:37;;;;;;;117.47;109.90;;;9.60;99.90;;;;;;4340457;33;20196;-61
2021/11/12 13:38:05;;;;;;;115.17;108.00;;;9.60;99.90;;;;;;4342424;33;20238;-61
2021/11/12 13:40:34;;;;;;;123.27;115.47;;;9.50;99.90;;;;;;4342081;33;20177;-62
2021/11/12 13:43:02;;;;;;;114.63;107.33;;;9.40;99.90;;;;;;4287474;32;2310476;-61
2021/11/12 13:45:30;;;;;;;113.83;106.53;;;9.50;99.90;;;;;;4374669;32;20165;-63
2021/11/12 13:48:09;;;;;;;105.47;98.77;;;9.40;99.90;;;;;;4374847;32;20160;-61
2021/11/12 13:50:37;;;;;;;114.80;107.50;;;9.30;99.90;;;;;;4371625;32;20199;-62
2021/11/12 13:53:04;;;;;;;126.23;118.43;;;9.30;99.90;;;;;;4373375;32;20611;-61
2021/11/12 13:55:35;;;;;;;113.43;106.37;;;9.30;99.90;;;;;;4373154;32;20203;-61
2021/11/12 13:58:05;;;;;;;122.50;114.93;;;9.30;99.90;;;;;;4375728;32;20151;-60
2021/11/12 14:00:33;;;;;;;123.63;115.97;;;9.30;99.90;;;;;;4373113;32;20154;-61
2021/11/12 14:03:04;;;;;;;112.30;105.00;;;9.20;99.90;;;;;;4374799;32;20607;-60
2021/11/12 14:05:32;;;;;;;123.30;115.73;;;9.20;99.90;;;;;;4374774;32;20178;-62
2021/11/12 14:08:06;;;;;;;123.17;115.27;;;9.20;99.90;;;;;;4375227;32;20650;-61
2021/11/12 14:10:37;;;;;;;116.27;108.80;;;9.20;99.90;;;;;;4373376;32;20574;-61
2021/11/12 14:13:06;;;;;;;122.37;114.37;;;9.20;99.90;;;;;;4374956;32;20199;-60
2021/11/12 14:15:38;;;;;;;127.20;119.17;;;9.20;99.90;;;;;;4374338;32;20148;-60
2021/11/12 14:21:12;;;;;;;125.57;117.40;;;9.10;99.90;;;;;;4313781;33;20152;-61
2021/11/12 14:24:10;;;;;;;126.00;117.57;;;9.10;99.90;;;;;;4312324;33;20156;-60
2021/11/12 14:26:45;;;;;;;124.90;116.27;;;9.10;99.90;;;;;;4313312;33;20181;-60
2021/11/12 14:29:35;;;;;;;126.57;118.03;;;9.10;99.90;;;;;;4311679;33;20219;-59
2021/11/12 14:32:26;;;;;;;129.47;121.43;;;9.00;99.90;;;;;;4312775;33;20250;-60
2021/11/12 14:35:11;;;;;;;122.43;114.60;;;9.00;99.90;;;;;;4311736;33;20212;-59
2021/11/12 14:37:56;;;;;;;127.57;119.40;;;9.00;99.90;;;;;;4309458;33;20229;-61
2021/11/12 14:40:35;;;;;;;125.63;117.43;;;9.00;99.90;;;;;;4310472;33;20165;-60
2021/11/12 14:43:14;;;;;;;124.40;116.13;;;8.90;99.90;;;;;;4310231;33;20609;-59
2021/11/12 14:45:41;;;;;;;127.00;118.57;;;9.00;99.90;;;;;;4311462;33;20173;-61
2021/11/12 14:48:17;;;;;;;118.10;110.03;;;9.00;99.90;;;;;;4312595;33;20707;-61
2021/11/12 14:50:57;;;;;;;115.60;107.43;;;9.00;99.90;;;;;;4308300;33;20197;-61
2021/11/12 14:53:28;;;;;;;122.70;113.90;;;9.00;99.90;;;;;;4310630;33;20164;-62
2021/11/12 14:56:07;;;;;;;119.23;110.27;;;9.00;99.90;;;;;;4310026;33;20177;-61
2021/11/12 14:58:36;;;;;;;120.47;112.33;;;8.90;99.90;;;;;;4362529;32;20159;-61
2021/11/12 15:01:10;;;;;;;126.63;117.90;;;8.90;99.90;;;;;;4373578;32;20549;-61
2021/11/12 15:03:41;;;;;;;116.93;108.63;;;8.80;99.90;;;;;;4371243;32;20242;-61
2021/11/12 15:06:08;;;;;;;127.93;119.03;;;8.80;99.90;;;;;;4373105;32;20187;-60
2021/11/12 15:08:41;;;;;;;123.17;114.80;;;8.60;99.90;;;;;;4374125;32;20164;-61
2021/11/12 15:11:11;;;;;;;135.80;126.47;;;8.70;99.90;;;;;;4371731;32;20403;-61
2021/11/12 15:13:40;;;;;;;133.03;124.27;;;8.60;99.90;;;;;;4372773;32;20542;-61
2021/11/12 15:16:12;;;;;;;127.20;118.20;;;8.50;99.90;;;;;;4369443;32;20192;-62
2021/11/12 15:18:39;;;;;;;130.17;120.87;;;8.60;99.90;;;;;;4370748;32;20595;-62
2021/11/12 15:21:12;;;;;;;130.27;121.40;;;8.50;99.90;;;;;;4372799;32;20503;-60
2021/11/12 15:24:05;;;;;;;121.43;112.70;;;8.50;99.90;;;;;;4375568;32;20542;-63
2021/11/12 15:29:23;;;;;;;143.80;132.77;;;8.40;99.90;;;;;;4376433;32;20250;-61
2021/11/12 15:34:36;;;;;;;117.17;108.30;;;8.20;99.90;;;;;;4374030;32;20172;-61
2021/11/12 15:37:06;;;;;;;118.97;110.73;;;8.30;99.90;;;;;;4375367;32;20189;-61
2021/11/12 15:39:55;;;;;;;115.83;107.50;;;8.20;99.90;;;;;;4373826;32;20189;-59
2021/11/12 15:45:15;;;;;;;120.20;111.20;;;8.20;99.90;;;;;;4319155;33;20515;-60
2021/11/12 15:47:46;;;;;;;126.67;118.10;;;8.20;99.90;;;;;;4321932;33;20487;-63
2021/11/12 15:50:16;;;;;;;127.60;118.43;;;8.20;99.90;;;;;;4317682;33;20149;-62
2021/11/12 15:52:50;;;;;;;126.77;117.83;;;8.20;99.90;;;;;;4316276;33;20200;-59
2021/11/12 15:55:33;;;;;;;125.10;116.23;;;8.20;99.90;;;;;;4318124;33;20178;-59
2021/11/12 16:06:50;;;;;;;127.77;118.70;;;8.20;99.90;;;;;;4251973;33;20170;-61
2021/11/12 16:09:26;;;;;;;141.17;131.90;;;8.10;99.90;;;;;;4248814;33;20163;-60
2021/11/12 16:14:45;;;;;;;121.30;112.90;;;8.10;99.90;;;;;;4208739;34;20212;-60
2021/11/12 16:17:31;;;;;;;124.50;116.10;;;8.10;99.90;;;;;;4206940;34;20660;-60